sensor_id;sensor_type;location;lat;lon;timestamp;P1;durP1;ratioP1;P2;durP2;ratioP2
1154;SDS011;566;48.414;9.118;2023-02-11T00:01:43;60.15;;;30.90;;
1154;SDS011;566;48.414;9.118;2023-02-11T00:04:08;79.53;;;39.72;;
1154;SDS011;566;48.414;9.118;2023-02-11T00:06:34;47.30;;;26.02;;
1154;SDS011;566;48.414;9.118;2023-02-11T00:09:00;54.70;;;26.45;;
1154;SDS011;566;48.414;9.118;2023-02-11T00:11:26;70.15;;;35.08;;
1154;SDS011;566;48.414;9.118;2023-02-11T00:13:56;42.38;;;24.02;;
1154;SDS011;566;48.414;9.118;2023-02-11T00:16:26;47.13;;;24.83;;
1154;SDS011;566;48.414;9.118;2023-02-11T00:18:53;76.15;;;37.17;;
1154;SDS011;566;48.414;9.118;2023-02-11T00:21:23;103.78;;;49.03;;
1154;SDS011;566;48.414;9.118;2023-02-11T00:23:50;45.78;;;25.20;;
1154;SDS011;566;48.414;9.118;2023-02-11T00:28:46;51.15;;;26.23;;
1154;SDS011;566;48.414;9.118;2023-02-11T00:31:12;46.42;;;24.73;;
1154;SDS011;566;48.414;9.118;2023-02-11T00:33:39;48.92;;;24.77;;
1154;SDS011;566;48.414;9.118;2023-02-11T00:36:06;50.65;;;26.33;;
1154;SDS011;566;48.414;9.118;2023-02-11T00:38:41;46.17;;;24.95;;
1154;SDS011;566;48.414;9.118;2023-02-11T00:41:07;47.85;;;24.92;;
1154;SDS011;566;48.414;9.118;2023-02-11T00:43:34;51.17;;;26.08;;
1154;SDS011;566;48.414;9.118;2023-02-11T00:46:00;43.08;;;22.15;;
1154;SDS011;566;48.414;9.118;2023-02-11T00:48:25;48.33;;;26.65;;
1154;SDS011;566;48.414;9.118;2023-02-11T00:50:51;45.30;;;23.83;;
1154;SDS011;566;48.414;9.118;2023-02-11T00:53:16;41.63;;;22.98;;
1154;SDS011;566;48.414;9.118;2023-02-11T00:55:42;46.10;;;24.20;;
1154;SDS011;566;48.414;9.118;2023-02-11T00:58:07;53.63;;;26.10;;
1154;SDS011;566;48.414;9.118;2023-02-11T01:00:33;38.88;;;20.88;;
1154;SDS011;566;48.414;9.118;2023-02-11T01:02:58;41.47;;;20.58;;
1154;SDS011;566;48.414;9.118;2023-02-11T01:05:24;46.25;;;23.88;;
1154;SDS011;566;48.414;9.118;2023-02-11T01:07:50;43.47;;;22.38;;
1154;SDS011;566;48.414;9.118;2023-02-11T01:10:15;44.13;;;22.50;;
1154;SDS011;566;48.414;9.118;2023-02-11T01:12:41;48.42;;;23.25;;
1154;SDS011;566;48.414;9.118;2023-02-11T01:15:07;42.78;;;22.83;;
1154;SDS011;566;48.414;9.118;2023-02-11T01:17:34;43.22;;;23.48;;
1154;SDS011;566;48.414;9.118;2023-02-11T01:20:06;40.10;;;22.63;;
1154;SDS011;566;48.414;9.118;2023-02-11T01:22:35;46.97;;;24.38;;
1154;SDS011;566;48.414;9.118;2023-02-11T01:25:03;45.40;;;24.55;;
1154;SDS011;566;48.414;9.118;2023-02-11T01:27:30;47.25;;;24.48;;
1154;SDS011;566;48.414;9.118;2023-02-11T01:29:55;50.72;;;26.88;;
1154;SDS011;566;48.414;9.118;2023-02-11T01:32:21;48.38;;;25.63;;
1154;SDS011;566;48.414;9.118;2023-02-11T01:34:46;49.88;;;25.95;;
1154;SDS011;566;48.414;9.118;2023-02-11T01:37:12;46.92;;;25.05;;
1154;SDS011;566;48.414;9.118;2023-02-11T01:39:37;48.08;;;25.67;;
1154;SDS011;566;48.414;9.118;2023-02-11T01:42:03;54.88;;;28.08;;
1154;SDS011;566;48.414;9.118;2023-02-11T01:44:38;60.17;;;33.35;;
1154;SDS011;566;48.414;9.118;2023-02-11T01:47:04;50.33;;;25.95;;
1154;SDS011;566;48.414;9.118;2023-02-11T01:49:33;51.88;;;28.45;;
1154;SDS011;566;48.414;9.118;2023-02-11T01:52:16;58.70;;;30.95;;
1154;SDS011;566;48.414;9.118;2023-02-11T01:54:52;59.72;;;29.05;;
1154;SDS011;566;48.414;9.118;2023-02-11T01:57:38;63.90;;;30.20;;
1154;SDS011;566;48.414;9.118;2023-02-11T02:05:38;56.38;;;29.65;;
1154;SDS011;566;48.414;9.118;2023-02-11T02:08:19;56.10;;;29.02;;
1154;SDS011;566;48.414;9.118;2023-02-11T02:10:53;55.92;;;30.80;;
1154;SDS011;566;48.414;9.118;2023-02-11T02:13:21;59.88;;;30.27;;
1154;SDS011;566;48.414;9.118;2023-02-11T02:15:51;55.83;;;27.83;;
1154;SDS011;566;48.414;9.118;2023-02-11T02:18:55;54.35;;;30.05;;
1154;SDS011;566;48.414;9.118;2023-02-11T02:29:57;58.13;;;31.15;;
1154;SDS011;566;48.414;9.118;2023-02-11T02:38:12;60.15;;;31.25;;
1154;SDS011;566;48.414;9.118;2023-02-11T02:40:41;61.45;;;32.13;;
1154;SDS011;566;48.414;9.118;2023-02-11T02:43:12;60.22;;;30.40;;
1154;SDS011;566;48.414;9.118;2023-02-11T02:45:39;58.03;;;31.52;;
1154;SDS011;566;48.414;9.118;2023-02-11T02:48:05;59.90;;;29.95;;
1154;SDS011;566;48.414;9.118;2023-02-11T02:50:33;59.83;;;31.40;;
1154;SDS011;566;48.414;9.118;2023-02-11T03:01:11;56.05;;;29.92;;
1154;SDS011;566;48.414;9.118;2023-02-11T03:11:52;59.90;;;30.20;;
1154;SDS011;566;48.414;9.118;2023-02-11T03:14:18;51.88;;;28.27;;
1154;SDS011;566;48.414;9.118;2023-02-11T03:16:47;50.25;;;27.40;;
1154;SDS011;566;48.414;9.118;2023-02-11T03:19:16;56.00;;;28.88;;
1154;SDS011;566;48.414;9.118;2023-02-11T03:21:46;52.45;;;28.80;;
1154;SDS011;566;48.414;9.118;2023-02-11T03:24:15;47.78;;;26.75;;
1154;SDS011;566;48.414;9.118;2023-02-11T03:26:51;56.75;;;30.27;;
1154;SDS011;566;48.414;9.118;2023-02-11T03:29:29;52.97;;;29.92;;
1154;SDS011;566;48.414;9.118;2023-02-11T03:32:13;58.78;;;30.35;;
1154;SDS011;566;48.414;9.118;2023-02-11T03:35:06;50.13;;;27.33;;
1154;SDS011;566;48.414;9.118;2023-02-11T03:37:42;57.50;;;29.13;;
1154;SDS011;566;48.414;9.118;2023-02-11T03:40:16;52.22;;;29.92;;
1154;SDS011;566;48.414;9.118;2023-02-11T03:42:47;51.90;;;28.35;;
1154;SDS011;566;48.414;9.118;2023-02-11T03:45:17;55.70;;;28.77;;
1154;SDS011;566;48.414;9.118;2023-02-11T03:47:48;53.85;;;29.00;;
1154;SDS011;566;48.414;9.118;2023-02-11T03:50:18;57.88;;;29.35;;
1154;SDS011;566;48.414;9.118;2023-02-11T03:52:46;54.75;;;28.98;;
1154;SDS011;566;48.414;9.118;2023-02-11T03:55:17;54.70;;;29.65;;
1154;SDS011;566;48.414;9.118;2023-02-11T03:57:45;55.22;;;30.02;;
1154;SDS011;566;48.414;9.118;2023-02-11T04:00:12;52.63;;;28.70;;
1154;SDS011;566;48.414;9.118;2023-02-11T04:02:38;57.80;;;30.83;;
1154;SDS011;566;48.414;9.118;2023-02-11T04:05:05;53.58;;;28.83;;
1154;SDS011;566;48.414;9.118;2023-02-11T04:07:32;50.88;;;28.15;;
1154;SDS011;566;48.414;9.118;2023-02-11T04:09:58;55.13;;;29.08;;
1154;SDS011;566;48.414;9.118;2023-02-11T04:12:23;55.40;;;29.10;;
1154;SDS011;566;48.414;9.118;2023-02-11T04:14:49;50.50;;;28.00;;
1154;SDS011;566;48.414;9.118;2023-02-11T04:17:15;52.70;;;28.02;;
1154;SDS011;566;48.414;9.118;2023-02-11T04:19:41;50.17;;;27.38;;
1154;SDS011;566;48.414;9.118;2023-02-11T04:22:06;51.92;;;29.30;;
1154;SDS011;566;48.414;9.118;2023-02-11T04:24:32;53.88;;;28.55;;
1154;SDS011;566;48.414;9.118;2023-02-11T04:26:58;50.65;;;27.20;;
1154;SDS011;566;48.414;9.118;2023-02-11T04:29:24;49.30;;;26.40;;
1154;SDS011;566;48.414;9.118;2023-02-11T04:31:49;47.22;;;27.05;;
1154;SDS011;566;48.414;9.118;2023-02-11T04:34:16;48.05;;;27.45;;
1154;SDS011;566;48.414;9.118;2023-02-11T04:36:42;47.83;;;25.05;;
1154;SDS011;566;48.414;9.118;2023-02-11T04:39:07;46.38;;;26.80;;
1154;SDS011;566;48.414;9.118;2023-02-11T04:41:33;43.63;;;24.10;;
1154;SDS011;566;48.414;9.118;2023-02-11T04:43:58;43.13;;;25.25;;
1154;SDS011;566;48.414;9.118;2023-02-11T04:46:24;47.47;;;24.40;;
1154;SDS011;566;48.414;9.118;2023-02-11T04:48:50;45.80;;;25.92;;
1154;SDS011;566;48.414;9.118;2023-02-11T04:51:15;44.38;;;24.88;;
1154;SDS011;566;48.414;9.118;2023-02-11T04:53:41;48.80;;;26.15;;
1154;SDS011;566;48.414;9.118;2023-02-11T04:56:07;43.40;;;25.05;;
1154;SDS011;566;48.414;9.118;2023-02-11T04:58:32;45.72;;;24.83;;
1154;SDS011;566;48.414;9.118;2023-02-11T05:01:08;47.35;;;26.15;;
1154;SDS011;566;48.414;9.118;2023-02-11T05:03:35;46.58;;;25.08;;
1154;SDS011;566;48.414;9.118;2023-02-11T05:06:01;46.10;;;24.77;;
1154;SDS011;566;48.414;9.118;2023-02-11T05:08:27;41.97;;;23.92;;
1154;SDS011;566;48.414;9.118;2023-02-11T05:10:53;47.53;;;24.98;;
1154;SDS011;566;48.414;9.118;2023-02-11T05:13:18;50.40;;;25.67;;
1154;SDS011;566;48.414;9.118;2023-02-11T05:15:44;44.42;;;23.65;;
1154;SDS011;566;48.414;9.118;2023-02-11T05:18:09;40.85;;;23.40;;
1154;SDS011;566;48.414;9.118;2023-02-11T05:20:38;44.25;;;23.70;;
1154;SDS011;566;48.414;9.118;2023-02-11T05:23:04;45.13;;;24.13;;
1154;SDS011;566;48.414;9.118;2023-02-11T05:25:29;38.90;;;22.83;;
1154;SDS011;566;48.414;9.118;2023-02-11T05:27:55;50.00;;;24.27;;
1154;SDS011;566;48.414;9.118;2023-02-11T05:30:20;40.30;;;21.75;;
1154;SDS011;566;48.414;9.118;2023-02-11T05:32:46;37.92;;;21.48;;
1154;SDS011;566;48.414;9.118;2023-02-11T05:35:12;36.28;;;20.23;;
1154;SDS011;566;48.414;9.118;2023-02-11T05:37:37;35.78;;;19.88;;
1154;SDS011;566;48.414;9.118;2023-02-11T05:40:03;41.65;;;23.23;;
1154;SDS011;566;48.414;9.118;2023-02-11T05:42:29;49.08;;;24.25;;
1154;SDS011;566;48.414;9.118;2023-02-11T05:44:54;38.58;;;21.73;;
1154;SDS011;566;48.414;9.118;2023-02-11T05:47:20;31.42;;;18.88;;
1154;SDS011;566;48.414;9.118;2023-02-11T05:49:49;39.63;;;21.13;;
1154;SDS011;566;48.414;9.118;2023-02-11T05:52:15;28.58;;;15.63;;
1154;SDS011;566;48.414;9.118;2023-02-11T05:54:41;30.15;;;16.88;;
1154;SDS011;566;48.414;9.118;2023-02-11T05:57:06;28.08;;;15.48;;
1154;SDS011;566;48.414;9.118;2023-02-11T05:59:32;35.75;;;18.25;;
1154;SDS011;566;48.414;9.118;2023-02-11T06:01:57;29.15;;;15.82;;
1154;SDS011;566;48.414;9.118;2023-02-11T06:04:23;25.60;;;14.90;;
1154;SDS011;566;48.414;9.118;2023-02-11T06:06:48;32.38;;;17.85;;
1154;SDS011;566;48.414;9.118;2023-02-11T06:09:14;34.08;;;19.95;;
1154;SDS011;566;48.414;9.118;2023-02-11T06:11:40;31.42;;;17.80;;
1154;SDS011;566;48.414;9.118;2023-02-11T06:14:05;30.10;;;17.95;;
1154;SDS011;566;48.414;9.118;2023-02-11T06:16:31;35.20;;;21.67;;
1154;SDS011;566;48.414;9.118;2023-02-11T06:18:56;23.77;;;13.40;;
1154;SDS011;566;48.414;9.118;2023-02-11T06:21:22;26.95;;;15.77;;
1154;SDS011;566;48.414;9.118;2023-02-11T06:23:47;30.38;;;17.58;;
1154;SDS011;566;48.414;9.118;2023-02-11T06:26:18;30.50;;;17.67;;
1154;SDS011;566;48.414;9.118;2023-02-11T06:28:45;25.23;;;13.75;;
1154;SDS011;566;48.414;9.118;2023-02-11T06:31:12;23.75;;;12.35;;
1154;SDS011;566;48.414;9.118;2023-02-11T06:33:38;23.60;;;12.25;;
1154;SDS011;566;48.414;9.118;2023-02-11T06:36:03;23.40;;;13.05;;
1154;SDS011;566;48.414;9.118;2023-02-11T06:38:36;21.17;;;12.23;;
1154;SDS011;566;48.414;9.118;2023-02-11T06:41:01;18.63;;;9.98;;
1154;SDS011;566;48.414;9.118;2023-02-11T06:43:27;17.02;;;9.93;;
1154;SDS011;566;48.414;9.118;2023-02-11T06:45:53;17.63;;;9.05;;
1154;SDS011;566;48.414;9.118;2023-02-11T06:48:19;12.73;;;8.48;;
1154;SDS011;566;48.414;9.118;2023-02-11T06:50:46;12.18;;;8.52;;
1154;SDS011;566;48.414;9.118;2023-02-11T06:53:11;19.67;;;12.23;;
1154;SDS011;566;48.414;9.118;2023-02-11T06:55:37;23.33;;;12.93;;
1154;SDS011;566;48.414;9.118;2023-02-11T06:58:02;23.23;;;13.70;;
1154;SDS011;566;48.414;9.118;2023-02-11T07:00:28;23.65;;;14.23;;
1154;SDS011;566;48.414;9.118;2023-02-11T07:02:54;21.95;;;12.43;;
1154;SDS011;566;48.414;9.118;2023-02-11T07:05:19;17.17;;;10.25;;
1154;SDS011;566;48.414;9.118;2023-02-11T07:07:45;14.52;;;7.90;;
1154;SDS011;566;48.414;9.118;2023-02-11T07:10:11;14.95;;;8.15;;
1154;SDS011;566;48.414;9.118;2023-02-11T07:12:36;19.42;;;11.45;;
1154;SDS011;566;48.414;9.118;2023-02-11T07:15:02;21.40;;;13.35;;
1154;SDS011;566;48.414;9.118;2023-02-11T07:17:28;19.85;;;12.13;;
1154;SDS011;566;48.414;9.118;2023-02-11T07:19:53;22.27;;;12.93;;
1154;SDS011;566;48.414;9.118;2023-02-11T07:22:19;39.78;;;22.92;;
1154;SDS011;566;48.414;9.118;2023-02-11T07:24:45;46.00;;;28.23;;
1154;SDS011;566;48.414;9.118;2023-02-11T07:27:10;26.13;;;15.10;;
1154;SDS011;566;48.414;9.118;2023-02-11T07:29:40;22.75;;;13.60;;
1154;SDS011;566;48.414;9.118;2023-02-11T07:32:06;24.95;;;15.40;;
1154;SDS011;566;48.414;9.118;2023-02-11T07:34:31;23.35;;;14.25;;
1154;SDS011;566;48.414;9.118;2023-02-11T07:36:57;24.08;;;13.35;;
1154;SDS011;566;48.414;9.118;2023-02-11T07:39:23;26.67;;;14.45;;
1154;SDS011;566;48.414;9.118;2023-02-11T07:41:51;20.80;;;13.10;;
1154;SDS011;566;48.414;9.118;2023-02-11T07:44:17;21.38;;;12.55;;
1154;SDS011;566;48.414;9.118;2023-02-11T07:46:43;22.20;;;12.57;;
1154;SDS011;566;48.414;9.118;2023-02-11T07:49:09;25.65;;;14.48;;
1154;SDS011;566;48.414;9.118;2023-02-11T07:51:36;21.20;;;12.75;;
1154;SDS011;566;48.414;9.118;2023-02-11T07:54:01;18.65;;;10.85;;
1154;SDS011;566;48.414;9.118;2023-02-11T07:56:28;20.17;;;12.32;;
1154;SDS011;566;48.414;9.118;2023-02-11T07:58:54;21.42;;;13.38;;
1154;SDS011;566;48.414;9.118;2023-02-11T08:01:24;23.17;;;13.68;;
1154;SDS011;566;48.414;9.118;2023-02-11T08:03:52;23.50;;;13.85;;
1154;SDS011;566;48.414;9.118;2023-02-11T08:06:19;24.88;;;15.32;;
1154;SDS011;566;48.414;9.118;2023-02-11T08:08:46;18.15;;;10.93;;
1154;SDS011;566;48.414;9.118;2023-02-11T08:11:13;20.35;;;11.50;;
1154;SDS011;566;48.414;9.118;2023-02-11T08:13:41;23.30;;;15.10;;
1154;SDS011;566;48.414;9.118;2023-02-11T08:16:07;19.80;;;12.57;;
1154;SDS011;566;48.414;9.118;2023-02-11T08:18:33;17.90;;;11.15;;
1154;SDS011;566;48.414;9.118;2023-02-11T08:21:06;21.17;;;12.50;;
1154;SDS011;566;48.414;9.118;2023-02-11T08:23:37;17.23;;;10.52;;
1154;SDS011;566;48.414;9.118;2023-02-11T08:26:05;17.02;;;10.77;;
1154;SDS011;566;48.414;9.118;2023-02-11T08:28:36;17.25;;;10.90;;
1154;SDS011;566;48.414;9.118;2023-02-11T08:31:10;17.50;;;10.93;;
1154;SDS011;566;48.414;9.118;2023-02-11T08:33:38;21.08;;;14.32;;
1154;SDS011;566;48.414;9.118;2023-02-11T08:36:10;21.30;;;14.23;;
1154;SDS011;566;48.414;9.118;2023-02-11T08:38:37;23.10;;;13.20;;
1154;SDS011;566;48.414;9.118;2023-02-11T08:41:03;16.80;;;11.10;;
1154;SDS011;566;48.414;9.118;2023-02-11T08:43:29;16.17;;;9.75;;
1154;SDS011;566;48.414;9.118;2023-02-11T08:45:54;12.55;;;7.68;;
1154;SDS011;566;48.414;9.118;2023-02-11T08:48:20;10.60;;;6.38;;
1154;SDS011;566;48.414;9.118;2023-02-11T08:50:45;10.18;;;5.70;;
1154;SDS011;566;48.414;9.118;2023-02-11T08:53:11;9.75;;;5.10;;
1154;SDS011;566;48.414;9.118;2023-02-11T08:55:36;14.25;;;7.40;;
1154;SDS011;566;48.414;9.118;2023-02-11T08:58:02;12.40;;;6.35;;
1154;SDS011;566;48.414;9.118;2023-02-11T09:00:28;11.25;;;6.85;;
1154;SDS011;566;48.414;9.118;2023-02-11T09:02:53;15.80;;;9.70;;
1154;SDS011;566;48.414;9.118;2023-02-11T09:05:19;16.20;;;9.35;;
1154;SDS011;566;48.414;9.118;2023-02-11T09:07:46;15.73;;;10.25;;
1154;SDS011;566;48.414;9.118;2023-02-11T09:10:11;18.95;;;11.45;;
1154;SDS011;566;48.414;9.118;2023-02-11T09:12:37;16.17;;;10.38;;
1154;SDS011;566;48.414;9.118;2023-02-11T09:15:03;16.00;;;10.05;;
1154;SDS011;566;48.414;9.118;2023-02-11T09:17:28;16.63;;;12.20;;
1154;SDS011;566;48.414;9.118;2023-02-11T09:19:54;16.80;;;11.25;;
1154;SDS011;566;48.414;9.118;2023-02-11T09:22:19;14.90;;;9.88;;
1154;SDS011;566;48.414;9.118;2023-02-11T09:24:45;14.23;;;9.85;;
1154;SDS011;566;48.414;9.118;2023-02-11T09:27:11;14.88;;;9.70;;
1154;SDS011;566;48.414;9.118;2023-02-11T09:29:36;14.95;;;9.82;;
1154;SDS011;566;48.414;9.118;2023-02-11T09:32:02;17.90;;;10.43;;
1154;SDS011;566;48.414;9.118;2023-02-11T09:34:27;21.85;;;12.80;;
1154;SDS011;566;48.414;9.118;2023-02-11T09:36:53;17.17;;;11.43;;
1154;SDS011;566;48.414;9.118;2023-02-11T09:39:19;18.90;;;12.27;;
1154;SDS011;566;48.414;9.118;2023-02-11T09:44:34;14.25;;;9.13;;
1154;SDS011;566;48.414;9.118;2023-02-11T09:47:02;14.60;;;9.52;;
1154;SDS011;566;48.414;9.118;2023-02-11T09:49:41;18.50;;;10.98;;
1154;SDS011;566;48.414;9.118;2023-02-11T09:55:04;19.75;;;11.50;;
1154;SDS011;566;48.414;9.118;2023-02-11T09:57:38;18.67;;;11.48;;
1154;SDS011;566;48.414;9.118;2023-02-11T10:11:15;14.90;;;9.43;;
1154;SDS011;566;48.414;9.118;2023-02-11T10:13:55;17.17;;;10.27;;
1154;SDS011;566;48.414;9.118;2023-02-11T10:16:38;17.25;;;9.20;;
1154;SDS011;566;48.414;9.118;2023-02-11T10:19:32;16.05;;;9.50;;
1154;SDS011;566;48.414;9.118;2023-02-11T10:22:21;14.85;;;9.10;;
1154;SDS011;566;48.414;9.118;2023-02-11T10:24:57;17.40;;;10.75;;
1154;SDS011;566;48.414;9.118;2023-02-11T10:27:30;19.08;;;10.73;;
1154;SDS011;566;48.414;9.118;2023-02-11T10:35:02;17.58;;;10.13;;
1154;SDS011;566;48.414;9.118;2023-02-11T10:37:36;19.30;;;10.73;;
1154;SDS011;566;48.414;9.118;2023-02-11T10:40:02;19.10;;;11.00;;
1154;SDS011;566;48.414;9.118;2023-02-11T10:42:27;17.05;;;9.77;;
1154;SDS011;566;48.414;9.118;2023-02-11T10:44:56;17.58;;;10.15;;
1154;SDS011;566;48.414;9.118;2023-02-11T10:47:26;16.75;;;9.73;;
1154;SDS011;566;48.414;9.118;2023-02-11T10:49:54;14.88;;;8.80;;
1154;SDS011;566;48.414;9.118;2023-02-11T10:52:27;15.77;;;9.32;;
1154;SDS011;566;48.414;9.118;2023-02-11T10:57:41;19.73;;;10.73;;
1154;SDS011;566;48.414;9.118;2023-02-11T11:02:41;21.38;;;11.75;;
1154;SDS011;566;48.414;9.118;2023-02-11T11:05:15;22.85;;;12.32;;
1154;SDS011;566;48.414;9.118;2023-02-11T11:07:53;20.08;;;11.18;;
1154;SDS011;566;48.414;9.118;2023-02-11T11:13:24;24.55;;;14.00;;
1154;SDS011;566;48.414;9.118;2023-02-11T11:18:36;24.50;;;13.77;;
1154;SDS011;566;48.414;9.118;2023-02-11T11:21:10;23.45;;;13.57;;
1154;SDS011;566;48.414;9.118;2023-02-11T11:23:46;22.50;;;12.82;;
1154;SDS011;566;48.414;9.118;2023-02-11T11:26:14;20.42;;;12.65;;
1154;SDS011;566;48.414;9.118;2023-02-11T11:28:42;21.02;;;12.60;;
1154;SDS011;566;48.414;9.118;2023-02-11T11:31:23;18.25;;;10.82;;
1154;SDS011;566;48.414;9.118;2023-02-11T11:33:54;19.83;;;11.00;;
1154;SDS011;566;48.414;9.118;2023-02-11T11:36:22;20.38;;;10.77;;
1154;SDS011;566;48.414;9.118;2023-02-11T11:38:57;16.23;;;9.90;;
1154;SDS011;566;48.414;9.118;2023-02-11T11:41:28;16.23;;;10.30;;
1154;SDS011;566;48.414;9.118;2023-02-11T11:43:57;15.10;;;9.30;;
1154;SDS011;566;48.414;9.118;2023-02-11T11:46:25;16.98;;;9.25;;
1154;SDS011;566;48.414;9.118;2023-02-11T11:48:57;17.13;;;9.07;;
1154;SDS011;566;48.414;9.118;2023-02-11T11:51:55;18.02;;;9.82;;
1154;SDS011;566;48.414;9.118;2023-02-11T11:54:40;16.55;;;8.90;;
1154;SDS011;566;48.414;9.118;2023-02-11T11:57:10;14.95;;;8.75;;
1154;SDS011;566;48.414;9.118;2023-02-11T11:59:40;14.95;;;8.73;;
1154;SDS011;566;48.414;9.118;2023-02-11T12:02:10;14.73;;;8.02;;
1154;SDS011;566;48.414;9.118;2023-02-11T12:05:06;13.88;;;8.30;;
1154;SDS011;566;48.414;9.118;2023-02-11T12:07:37;14.77;;;7.80;;
1154;SDS011;566;48.414;9.118;2023-02-11T12:35:09;13.48;;;6.68;;
1154;SDS011;566;48.414;9.118;2023-02-11T12:48:51;12.73;;;7.68;;
1154;SDS011;566;48.414;9.118;2023-02-11T12:54:29;14.70;;;7.90;;
1154;SDS011;566;48.414;9.118;2023-02-11T12:57:34;14.65;;;8.32;;
1154;SDS011;566;48.414;9.118;2023-02-11T13:00:14;18.77;;;8.32;;
1154;SDS011;566;48.414;9.118;2023-02-11T13:02:54;13.63;;;7.68;;
1154;SDS011;566;48.414;9.118;2023-02-11T13:05:38;12.13;;;6.80;;
1154;SDS011;566;48.414;9.118;2023-02-11T13:11:10;11.60;;;6.50;;
1154;SDS011;566;48.414;9.118;2023-02-11T13:13:48;14.80;;;6.88;;
1154;SDS011;566;48.414;9.118;2023-02-11T13:16:37;14.60;;;6.45;;
1154;SDS011;566;48.414;9.118;2023-02-11T13:37:53;16.80;;;7.40;;
1154;SDS011;566;48.414;9.118;2023-02-11T13:40:21;15.75;;;9.10;;
1154;SDS011;566;48.414;9.118;2023-02-11T13:42:50;15.52;;;8.90;;
1154;SDS011;566;48.414;9.118;2023-02-11T13:45:39;16.88;;;9.98;;
1154;SDS011;566;48.414;9.118;2023-02-11T13:48:13;14.93;;;9.25;;
1154;SDS011;566;48.414;9.118;2023-02-11T13:50:45;18.10;;;10.02;;
1154;SDS011;566;48.414;9.118;2023-02-11T13:53:15;15.88;;;9.90;;
1154;SDS011;566;48.414;9.118;2023-02-11T13:55:46;15.98;;;9.68;;
1154;SDS011;566;48.414;9.118;2023-02-11T14:00:42;17.42;;;9.18;;
1154;SDS011;566;48.414;9.118;2023-02-11T14:14:21;15.52;;;8.98;;
1154;SDS011;566;48.414;9.118;2023-02-11T14:22:05;16.08;;;9.18;;
1154;SDS011;566;48.414;9.118;2023-02-11T14:25:01;16.00;;;9.30;;
1154;SDS011;566;48.414;9.118;2023-02-11T14:32:54;14.77;;;9.02;;
1154;SDS011;566;48.414;9.118;2023-02-11T14:35:40;16.95;;;8.75;;
1154;SDS011;566;48.414;9.118;2023-02-11T14:41:24;13.90;;;7.93;;
1154;SDS011;566;48.414;9.118;2023-02-11T14:43:55;14.10;;;7.85;;
1154;SDS011;566;48.414;9.118;2023-02-11T14:46:24;11.82;;;6.53;;
1154;SDS011;566;48.414;9.118;2023-02-11T14:48:52;10.68;;;5.68;;
1154;SDS011;566;48.414;9.118;2023-02-11T14:54:01;10.63;;;6.47;;
1154;SDS011;566;48.414;9.118;2023-02-11T14:56:36;11.13;;;6.47;;
1154;SDS011;566;48.414;9.118;2023-02-11T14:59:12;9.80;;;6.18;;
1154;SDS011;566;48.414;9.118;2023-02-11T15:01:43;8.77;;;5.47;;
1154;SDS011;566;48.414;9.118;2023-02-11T15:04:23;10.85;;;6.45;;
1154;SDS011;566;48.414;9.118;2023-02-11T15:06:51;12.27;;;6.50;;
1154;SDS011;566;48.414;9.118;2023-02-11T15:09:27;14.55;;;7.70;;
1154;SDS011;566;48.414;9.118;2023-02-11T15:11:56;12.57;;;7.70;;
1154;SDS011;566;48.414;9.118;2023-02-11T15:16:56;9.95;;;6.70;;
1154;SDS011;566;48.414;9.118;2023-02-11T15:19:34;12.13;;;7.47;;
1154;SDS011;566;48.414;9.118;2023-02-11T15:22:15;14.38;;;8.18;;
1154;SDS011;566;48.414;9.118;2023-02-11T15:24:45;13.05;;;8.10;;
1154;SDS011;566;48.414;9.118;2023-02-11T15:27:27;12.45;;;8.23;;
1154;SDS011;566;48.414;9.118;2023-02-11T15:30:28;13.32;;;8.73;;
1154;SDS011;566;48.414;9.118;2023-02-11T15:32:54;12.48;;;8.00;;
1154;SDS011;566;48.414;9.118;2023-02-11T15:35:37;11.90;;;7.90;;
1154;SDS011;566;48.414;9.118;2023-02-11T15:38:04;13.57;;;8.38;;
1154;SDS011;566;48.414;9.118;2023-02-11T15:40:33;12.35;;;7.18;;
1154;SDS011;566;48.414;9.118;2023-02-11T15:43:01;12.77;;;7.80;;
1154;SDS011;566;48.414;9.118;2023-02-11T15:45:37;14.52;;;8.55;;
1154;SDS011;566;48.414;9.118;2023-02-11T15:51:02;16.05;;;9.55;;
1154;SDS011;566;48.414;9.118;2023-02-11T15:53:51;21.70;;;12.63;;
1154;SDS011;566;48.414;9.118;2023-02-11T15:58:58;19.17;;;11.75;;
1154;SDS011;566;48.414;9.118;2023-02-11T16:01:33;16.90;;;11.30;;
1154;SDS011;566;48.414;9.118;2023-02-11T16:04:03;19.10;;;11.27;;
1154;SDS011;566;48.414;9.118;2023-02-11T16:11:33;21.33;;;13.43;;
1154;SDS011;566;48.414;9.118;2023-02-11T16:14:01;17.95;;;10.95;;
1154;SDS011;566;48.414;9.118;2023-02-11T16:16:43;14.63;;;10.23;;
1154;SDS011;566;48.414;9.118;2023-02-11T16:19:15;15.38;;;8.95;;
1154;SDS011;566;48.414;9.118;2023-02-11T16:21:43;13.25;;;8.73;;
1154;SDS011;566;48.414;9.118;2023-02-11T16:24:29;13.27;;;9.38;;
1154;SDS011;566;48.414;9.118;2023-02-11T16:27:00;15.45;;;8.63;;
1154;SDS011;566;48.414;9.118;2023-02-11T16:29:29;17.25;;;9.52;;
1154;SDS011;566;48.414;9.118;2023-02-11T16:32:04;20.73;;;11.80;;
1154;SDS011;566;48.414;9.118;2023-02-11T16:34:32;19.45;;;11.57;;
1154;SDS011;566;48.414;9.118;2023-02-11T16:37:03;21.42;;;10.63;;
1154;SDS011;566;48.414;9.118;2023-02-11T16:39:31;18.15;;;10.10;;
1154;SDS011;566;48.414;9.118;2023-02-11T16:41:57;20.70;;;13.52;;
1154;SDS011;566;48.414;9.118;2023-02-11T16:44:23;24.88;;;15.25;;
1154;SDS011;566;48.414;9.118;2023-02-11T16:46:52;28.20;;;15.68;;
1154;SDS011;566;48.414;9.118;2023-02-11T16:49:22;28.13;;;15.38;;
1154;SDS011;566;48.414;9.118;2023-02-11T16:51:49;23.40;;;14.70;;
1154;SDS011;566;48.414;9.118;2023-02-11T16:54:16;23.48;;;14.35;;
1154;SDS011;566;48.414;9.118;2023-02-11T16:56:43;24.98;;;14.52;;
1154;SDS011;566;48.414;9.118;2023-02-11T16:59:09;21.25;;;13.85;;
1154;SDS011;566;48.414;9.118;2023-02-11T17:01:35;30.50;;;17.05;;
1154;SDS011;566;48.414;9.118;2023-02-11T17:04:03;26.55;;;15.52;;
1154;SDS011;566;48.414;9.118;2023-02-11T17:06:29;25.17;;;14.27;;
1154;SDS011;566;48.414;9.118;2023-02-11T17:08:55;23.83;;;15.63;;
1154;SDS011;566;48.414;9.118;2023-02-11T17:11:20;27.83;;;16.58;;
1154;SDS011;566;48.414;9.118;2023-02-11T17:13:46;26.95;;;15.93;;
1154;SDS011;566;48.414;9.118;2023-02-11T17:16:15;25.90;;;15.93;;
1154;SDS011;566;48.414;9.118;2023-02-11T17:18:46;28.85;;;16.25;;
1154;SDS011;566;48.414;9.118;2023-02-11T17:21:12;27.17;;;16.90;;
1154;SDS011;566;48.414;9.118;2023-02-11T17:23:39;53.05;;;37.85;;
1154;SDS011;566;48.414;9.118;2023-02-11T17:26:04;26.42;;;18.17;;
1154;SDS011;566;48.414;9.118;2023-02-11T17:28:30;25.65;;;17.35;;
1154;SDS011;566;48.414;9.118;2023-02-11T17:30:56;33.28;;;22.08;;
1154;SDS011;566;48.414;9.118;2023-02-11T17:33:22;27.20;;;16.92;;
1154;SDS011;566;48.414;9.118;2023-02-11T17:35:48;34.40;;;21.10;;
1154;SDS011;566;48.414;9.118;2023-02-11T17:38:13;31.85;;;19.38;;
1154;SDS011;566;48.414;9.118;2023-02-11T17:40:39;30.73;;;18.85;;
1154;SDS011;566;48.414;9.118;2023-02-11T17:43:05;33.90;;;20.33;;
1154;SDS011;566;48.414;9.118;2023-02-11T17:45:30;31.38;;;19.63;;
1154;SDS011;566;48.414;9.118;2023-02-11T17:47:56;52.65;;;27.77;;
1154;SDS011;566;48.414;9.118;2023-02-11T17:50:21;84.00;;;40.28;;
1154;SDS011;566;48.414;9.118;2023-02-11T17:52:47;61.25;;;33.70;;
1154;SDS011;566;48.414;9.118;2023-02-11T17:55:12;53.45;;;32.55;;
1154;SDS011;566;48.414;9.118;2023-02-11T17:57:38;41.20;;;24.48;;
1154;SDS011;566;48.414;9.118;2023-02-11T18:00:05;40.08;;;24.55;;
1154;SDS011;566;48.414;9.118;2023-02-11T18:02:32;43.60;;;27.20;;
1154;SDS011;566;48.414;9.118;2023-02-11T18:04:59;41.83;;;24.90;;
1154;SDS011;566;48.414;9.118;2023-02-11T18:07:25;43.75;;;25.88;;
1154;SDS011;566;48.414;9.118;2023-02-11T18:09:51;45.65;;;25.40;;
1154;SDS011;566;48.414;9.118;2023-02-11T18:12:17;44.05;;;25.80;;
1154;SDS011;566;48.414;9.118;2023-02-11T18:14:49;48.13;;;30.58;;